createdAt,value
2019-02-17T00:00:12.174Z,22.77
2019-02-17T00:02:41.394Z,21.43
2019-02-17T00:05:10.579Z,19.43
2019-02-17T00:07:39.883Z,21.63
2019-02-17T00:10:09.118Z,23.53
2019-02-17T00:12:38.265Z,25.33
2019-02-17T00:15:07.784Z,26.20
2019-02-17T00:17:36.946Z,28.00
2019-02-17T00:20:08.039Z,30.17
2019-02-17T00:22:37.400Z,28.70
2019-02-17T00:25:06.840Z,25.77
2019-02-17T00:27:35.986Z,21.80
2019-02-17T00:30:05.296Z,20.30
2019-02-17T00:32:34.486Z,20.27
2019-02-17T00:35:03.621Z,19.53
2019-02-17T00:37:32.839Z,20.40
2019-02-17T00:40:01.997Z,20.40
2019-02-17T00:42:31.264Z,18.20
2019-02-17T00:45:00.418Z,17.57
2019-02-17T00:47:29.576Z,16.77
2019-02-17T00:49:58.882Z,17.30
2019-02-17T00:52:28.154Z,16.43
2019-02-17T00:54:57.383Z,18.07
2019-02-17T00:57:26.590Z,16.30
2019-02-17T00:59:55.841Z,16.10
2019-02-17T01:02:25.011Z,16.57
2019-02-17T01:04:54.167Z,16.50
2019-02-17T01:07:23.346Z,15.20
2019-02-17T01:09:52.491Z,14.93
2019-02-17T01:12:21.647Z,15.27
2019-02-17T01:14:50.806Z,15.27
2019-02-17T01:17:20.079Z,14.60
2019-02-17T01:19:49.366Z,15.27
2019-02-17T01:22:18.508Z,16.07
2019-02-17T01:24:47.630Z,14.63
2019-02-17T01:27:16.875Z,15.30
2019-02-17T01:29:46.030Z,16.20
2019-02-17T01:32:15.174Z,15.13
2019-02-17T01:34:44.458Z,15.40
2019-02-17T01:37:13.595Z,15.13
2019-02-17T01:39:52.018Z,15.47
2019-02-17T01:42:21.458Z,15.37
2019-02-17T01:44:50.642Z,14.73
2019-02-17T01:47:19.820Z,14.73
2019-02-17T01:49:48.973Z,15.20
2019-02-17T01:52:18.107Z,14.77
2019-02-17T01:54:47.574Z,15.10
2019-02-17T01:57:16.702Z,15.20
2019-02-17T01:59:45.846Z,14.33
2019-02-17T02:02:14.987Z,15.37
2019-02-17T02:04:44.125Z,15.07
2019-02-17T02:07:13.246Z,14.73
2019-02-17T02:09:42.424Z,15.07
2019-02-17T02:12:11.557Z,13.97
2019-02-17T02:14:40.702Z,14.33
2019-02-17T02:17:09.846Z,15.10
2019-02-17T02:19:39.032Z,14.90
2019-02-17T02:22:08.213Z,15.23
2019-02-17T02:24:37.370Z,15.03
2019-02-17T02:27:06.573Z,15.20
2019-02-17T02:29:41.142Z,15.97
2019-02-17T02:32:06.645Z,15.90
2019-02-17T02:34:35.781Z,16.13
2019-02-17T02:37:04.917Z,16.33
2019-02-17T02:39:34.078Z,15.73
2019-02-17T02:42:03.322Z,14.97
2019-02-17T02:44:32.669Z,16.93
2019-02-17T02:47:01.789Z,14.60
2019-02-17T02:49:30.977Z,15.90
2019-02-17T02:52:00.118Z,15.40
2019-02-17T02:54:29.283Z,15.87
2019-02-17T02:56:58.520Z,16.57
2019-02-17T02:59:27.668Z,15.10
2019-02-17T03:01:56.869Z,15.57
2019-02-17T03:04:26.039Z,15.50
2019-02-17T03:06:57.266Z,15.73
2019-02-17T03:09:26.441Z,16.10
2019-02-17T03:11:55.584Z,14.53
2019-02-17T03:14:24.738Z,15.87
2019-02-17T03:16:53.918Z,15.70
2019-02-17T03:19:23.052Z,16.13
2019-02-17T03:21:52.235Z,14.77
2019-02-17T03:24:21.435Z,15.60
2019-02-17T03:26:50.588Z,15.43
2019-02-17T03:29:19.865Z,16.37
2019-02-17T03:31:49.219Z,15.97
2019-02-17T03:34:18.421Z,16.73
2019-02-17T03:36:47.558Z,17.43
2019-02-17T03:39:16.780Z,17.97
2019-02-17T03:41:45.962Z,16.70
2019-02-17T03:44:15.118Z,15.80
2019-02-17T03:46:44.271Z,17.93
2019-02-17T03:49:13.522Z,16.63
2019-02-17T03:51:42.658Z,17.00
2019-02-17T03:54:11.859Z,16.47
2019-02-17T03:56:41.041Z,16.13
2019-02-17T03:59:10.177Z,17.27
2019-02-17T04:01:39.382Z,18.73
2019-02-17T04:04:08.579Z,17.60
2019-02-17T04:06:37.719Z,17.37
2019-02-17T04:09:08.470Z,17.33
2019-02-17T04:11:37.620Z,17.60
2019-02-17T04:14:06.772Z,17.53
2019-02-17T04:16:35.933Z,17.03
2019-02-17T04:19:05.111Z,17.27
2019-02-17T04:21:34.323Z,17.67
2019-02-17T04:24:03.578Z,18.20
2019-02-17T04:26:32.747Z,17.23
2019-02-17T04:29:01.989Z,16.53
2019-02-17T04:31:31.203Z,16.80
2019-02-17T04:34:00.355Z,16.40
2019-02-17T04:36:29.503Z,15.03
2019-02-17T04:38:58.733Z,15.57
2019-02-17T04:41:27.941Z,15.30
2019-02-17T04:43:57.075Z,15.37
2019-02-17T04:46:26.378Z,16.07
2019-02-17T04:48:55.517Z,16.17
2019-02-17T04:51:24.711Z,15.93
2019-02-17T04:53:53.937Z,15.23
2019-02-17T04:56:23.082Z,15.23
2019-02-17T04:58:52.323Z,15.67
2019-02-17T05:01:21.569Z,15.60
2019-02-17T05:03:50.759Z,16.03
2019-02-17T05:06:19.968Z,15.23
2019-02-17T05:08:49.262Z,17.93
2019-02-17T05:11:18.386Z,16.90
2019-02-17T05:13:47.556Z,15.23
2019-02-17T05:16:16.770Z,15.43
2019-02-17T05:18:45.991Z,15.90
2019-02-17T05:21:15.145Z,16.43
2019-02-17T05:23:44.354Z,17.60
2019-02-17T05:26:13.513Z,16.53
2019-02-17T05:28:42.695Z,18.80
2019-02-17T05:31:11.836Z,17.37
2019-02-17T05:33:40.969Z,18.27
2019-02-17T05:36:10.129Z,18.23
2019-02-17T05:38:39.357Z,18.37
2019-02-17T05:41:08.527Z,19.10
2019-02-17T05:43:37.650Z,18.23
2019-02-17T05:46:06.795Z,18.73
2019-02-17T05:48:36.082Z,20.43
2019-02-17T05:51:05.259Z,19.00
2019-02-17T05:53:34.462Z,20.20
2019-02-17T05:56:03.594Z,21.30
2019-02-17T05:58:32.772Z,20.57
2019-02-17T06:01:04.135Z,20.03
2019-02-17T06:03:32.762Z,19.43
2019-02-17T06:06:01.903Z,21.97
2019-02-17T06:08:31.138Z,20.90
2019-02-17T06:11:00.319Z,22.23
2019-02-17T06:13:29.457Z,22.63
2019-02-17T06:15:58.610Z,25.27
2019-02-17T06:18:27.846Z,24.80
2019-02-17T06:20:57.966Z,24.83
2019-02-17T06:23:27.109Z,26.67
2019-02-17T06:25:56.257Z,24.67
2019-02-17T06:28:25.438Z,25.73
2019-02-17T06:30:54.589Z,26.43
2019-02-17T06:33:23.744Z,25.97
2019-02-17T06:35:52.918Z,25.63
2019-02-17T06:38:22.138Z,27.00
2019-02-17T06:40:51.270Z,27.33
2019-02-17T06:43:20.473Z,23.60
2019-02-17T06:45:49.650Z,22.70
2019-02-17T06:48:18.782Z,22.13
2019-02-17T06:50:47.993Z,22.70
2019-02-17T06:53:17.119Z,24.23
2019-02-17T06:55:51.161Z,23.97
2019-02-17T06:58:20.358Z,25.80
2019-02-17T07:00:51.937Z,25.20
2019-02-17T07:03:21.122Z,25.63
2019-02-17T07:06:01.997Z,25.97
2019-02-17T07:08:31.330Z,25.73
2019-02-17T07:11:00.526Z,27.20
2019-02-17T07:13:29.686Z,27.60
2019-02-17T07:15:58.928Z,26.67
2019-02-17T07:18:28.230Z,27.70
2019-02-17T07:20:57.373Z,28.93
2019-02-17T07:23:26.538Z,29.90
2019-02-17T07:25:55.678Z,30.27
2019-02-17T07:28:24.816Z,30.20
2019-02-17T07:30:54.122Z,28.47
2019-02-17T07:33:23.331Z,31.97
2019-02-17T07:35:52.502Z,33.57
2019-02-17T07:38:21.665Z,33.07
2019-02-17T07:40:50.902Z,35.80
2019-02-17T07:43:20.026Z,34.97
2019-02-17T07:45:49.260Z,34.23
2019-02-17T07:48:18.411Z,35.33
2019-02-17T07:50:47.552Z,34.30
2019-02-17T07:53:16.689Z,31.07
2019-02-17T07:55:45.810Z,25.77
2019-02-17T07:58:14.970Z,26.70
2019-02-17T08:00:44.103Z,25.33
2019-02-17T08:03:13.272Z,22.93
2019-02-17T08:05:42.426Z,23.23
2019-02-17T08:08:11.570Z,22.43
2019-02-17T08:10:40.749Z,21.73
2019-02-17T08:13:09.913Z,23.50
2019-02-17T08:15:39.038Z,23.60
2019-02-17T08:18:08.195Z,24.73
2019-02-17T08:20:37.334Z,25.00
2019-02-17T08:23:06.537Z,26.67
2019-02-17T08:25:35.681Z,24.43
2019-02-17T08:28:04.809Z,24.57
2019-02-17T08:30:33.966Z,22.53
2019-02-17T08:33:03.202Z,23.90
2019-02-17T08:35:32.509Z,24.50
2019-02-17T08:38:03.531Z,24.57
2019-02-17T08:40:32.798Z,25.40
2019-02-17T08:43:01.983Z,25.43
2019-02-17T08:45:31.106Z,24.83
2019-02-17T08:48:00.257Z,25.27
2019-02-17T08:50:29.438Z,25.87
2019-02-17T08:52:58.559Z,26.33
2019-02-17T08:55:27.694Z,23.73
2019-02-17T08:57:56.890Z,22.93
2019-02-17T09:00:26.138Z,21.77
2019-02-17T09:02:55.265Z,19.90
2019-02-17T09:05:24.498Z,20.83
2019-02-17T09:07:53.657Z,19.63
2019-02-17T09:10:22.870Z,19.43
2019-02-17T09:12:52.000Z,19.33
2019-02-17T09:15:21.229Z,19.27
2019-02-17T09:17:50.414Z,20.60
2019-02-17T09:20:19.593Z,21.00
2019-02-17T09:22:48.754Z,20.27
2019-02-17T09:25:18.042Z,18.87
2019-02-17T09:27:47.246Z,19.93
2019-02-17T09:30:17.010Z,18.53
2019-02-17T09:32:46.142Z,19.97
2019-02-17T09:35:15.368Z,19.17
2019-02-17T09:37:44.535Z,19.43
2019-02-17T09:40:13.686Z,19.73
2019-02-17T09:42:42.858Z,19.13
2019-02-17T09:45:13.001Z,20.83
2019-02-17T09:47:42.165Z,20.60
2019-02-17T09:50:12.382Z,21.83
2019-02-17T09:52:41.547Z,22.00
2019-02-17T09:55:10.754Z,22.93
2019-02-17T09:57:40.192Z,24.47
2019-02-17T10:00:11.222Z,23.63
2019-02-17T10:02:40.414Z,19.67
2019-02-17T10:05:09.602Z,17.57
2019-02-17T10:07:38.870Z,16.63
2019-02-17T10:10:10.381Z,16.40
2019-02-17T10:12:39.513Z,17.43
2019-02-17T10:15:10.553Z,17.17
2019-02-17T10:17:39.950Z,17.60
2019-02-17T10:20:09.845Z,16.30
2019-02-17T10:22:39.070Z,16.70
2019-02-17T10:25:08.226Z,18.43
2019-02-17T10:27:37.367Z,15.07
2019-02-17T10:30:07.606Z,17.37
2019-02-17T10:32:39.168Z,20.83
2019-02-17T10:35:07.874Z,21.20
2019-02-17T10:37:37.020Z,21.10
2019-02-17T10:40:07.857Z,21.23
2019-02-17T10:42:37.518Z,18.37
2019-02-17T10:45:07.381Z,19.03
2019-02-17T10:47:36.630Z,21.00
2019-02-17T10:50:06.210Z,20.37
2019-02-17T10:52:35.557Z,21.97
2019-02-17T10:55:05.087Z,20.57
2019-02-17T10:57:34.221Z,19.60
2019-02-17T11:00:04.571Z,19.83
2019-02-17T11:02:33.756Z,19.70
2019-02-17T11:05:02.921Z,20.60
2019-02-17T11:07:32.294Z,18.37
2019-02-17T11:10:01.475Z,19.30
2019-02-17T11:12:30.622Z,20.40
2019-02-17T11:14:59.790Z,19.43
2019-02-17T11:17:28.966Z,18.30
2019-02-17T11:20:04.022Z,19.03
2019-02-17T11:22:37.720Z,19.80
2019-02-17T11:25:07.298Z,19.00
2019-02-17T11:27:36.446Z,20.67
2019-02-17T11:30:06.851Z,20.43
2019-02-17T11:32:36.115Z,19.33
2019-02-17T11:35:05.500Z,20.10
2019-02-17T11:37:34.634Z,19.47
2019-02-17T11:40:03.803Z,19.60
2019-02-17T11:42:32.962Z,20.93
2019-02-17T11:45:02.135Z,20.80
2019-02-17T11:47:31.302Z,22.80
2019-02-17T11:50:00.445Z,20.63
2019-02-17T11:52:29.595Z,20.47
2019-02-17T11:54:58.770Z,20.50
2019-02-17T11:57:27.970Z,22.80
2019-02-17T11:59:57.206Z,25.10
2019-02-17T12:02:26.358Z,24.63
2019-02-17T12:04:55.530Z,21.93
2019-02-17T12:07:24.753Z,19.03
2019-02-17T12:09:54.030Z,20.37
2019-02-17T12:12:23.190Z,24.27
2019-02-17T12:14:52.379Z,18.73
2019-02-17T12:17:21.602Z,17.63
2019-02-17T12:19:51.922Z,17.30
2019-02-17T12:22:46.234Z,16.33
2019-02-17T12:25:20.254Z,17.87
2019-02-17T12:28:14.266Z,17.53
2019-02-17T12:30:44.742Z,18.37
2019-02-17T12:33:19.218Z,19.33
2019-02-17T12:35:44.754Z,21.77
2019-02-17T12:38:13.915Z,19.50
2019-02-17T12:40:43.257Z,21.17
2019-02-17T12:43:12.418Z,20.00
2019-02-17T12:45:41.582Z,20.77
2019-02-17T12:48:10.753Z,19.83
2019-02-17T12:50:40.010Z,19.77
2019-02-17T12:53:09.138Z,20.07
2019-02-17T12:55:38.314Z,19.73
2019-02-17T12:58:07.450Z,20.13
2019-02-17T13:00:36.658Z,22.10
2019-02-17T13:03:06.009Z,20.87
2019-02-17T13:05:35.158Z,20.60
2019-02-17T13:08:04.333Z,20.27
2019-02-17T13:10:33.540Z,20.50
2019-02-17T13:13:04.732Z,18.63
2019-02-17T13:15:33.734Z,18.93
2019-02-17T13:18:03.030Z,18.00
2019-02-17T13:20:32.188Z,18.77
2019-02-17T13:23:01.603Z,18.47
2019-02-17T13:25:30.834Z,18.13
2019-02-17T13:28:00.046Z,18.57
2019-02-17T13:30:29.262Z,19.10
2019-02-17T13:32:58.615Z,20.63
2019-02-17T13:35:27.779Z,21.47
2019-02-17T13:37:56.970Z,21.60
2019-02-17T13:40:26.174Z,21.87
2019-02-17T13:42:55.350Z,24.00
2019-02-17T13:45:24.509Z,23.37
2019-02-17T13:47:53.763Z,25.83
2019-02-17T13:50:22.915Z,24.43
2019-02-17T13:52:52.162Z,22.67
2019-02-17T13:55:21.350Z,22.47
2019-02-17T13:57:52.350Z,22.17
2019-02-17T14:00:21.534Z,22.00
2019-02-17T14:02:50.688Z,22.43
2019-02-17T14:05:19.946Z,23.87
2019-02-17T14:07:49.081Z,23.20
2019-02-17T14:10:18.242Z,23.97
2019-02-17T14:12:47.434Z,22.50
2019-02-17T14:15:16.702Z,22.60
2019-02-17T14:17:45.882Z,23.70
2019-02-17T14:20:15.050Z,21.53
2019-02-17T14:22:44.291Z,24.60
2019-02-17T14:25:13.542Z,24.50
2019-02-17T14:27:42.822Z,24.50
2019-02-17T14:30:12.533Z,22.87
2019-02-17T14:32:41.750Z,21.13
2019-02-17T14:35:10.902Z,23.03
2019-02-17T14:37:40.127Z,21.37
2019-02-17T14:40:09.642Z,23.03
2019-02-17T14:42:38.857Z,22.00
2019-02-17T14:45:08.434Z,22.47
2019-02-17T14:47:37.598Z,22.10
2019-02-17T14:50:06.906Z,23.90
2019-02-17T14:52:36.066Z,23.17
2019-02-17T14:55:05.573Z,22.50
2019-02-17T14:57:34.816Z,24.20
2019-02-17T15:00:04.250Z,26.67
2019-02-17T15:02:33.479Z,25.80
2019-02-17T15:05:02.666Z,26.17
2019-02-17T15:07:31.877Z,22.83
2019-02-17T15:10:01.092Z,19.67
2019-02-17T15:12:30.237Z,19.00
2019-02-17T15:14:59.430Z,20.43
2019-02-17T15:17:28.622Z,22.77
2019-02-17T15:19:57.798Z,23.80
2019-02-17T15:22:26.954Z,26.67
2019-02-17T15:24:56.127Z,26.27
2019-02-17T15:27:25.371Z,29.13
2019-02-17T15:29:54.586Z,29.00
2019-02-17T15:32:23.854Z,30.43
2019-02-17T15:34:53.009Z,33.17
2019-02-17T15:37:22.733Z,31.73
2019-02-17T15:39:51.910Z,32.03
2019-02-17T15:42:21.050Z,34.17
2019-02-17T15:44:50.206Z,33.90
2019-02-17T15:47:19.380Z,33.40
2019-02-17T15:49:48.643Z,32.33
2019-02-17T15:52:17.850Z,38.07
2019-02-17T15:54:46.990Z,41.87
2019-02-17T15:57:16.191Z,41.77
2019-02-17T15:59:45.354Z,43.13
2019-02-17T16:02:14.660Z,43.73
2019-02-17T16:04:45.125Z,47.50
2019-02-17T16:07:14.498Z,53.80
2019-02-17T16:09:43.645Z,49.30
2019-02-17T16:12:12.842Z,52.57
2019-02-17T16:14:42.115Z,56.93
2019-02-17T16:17:11.313Z,61.00
2019-02-17T16:19:40.617Z,65.67
2019-02-17T16:22:09.869Z,70.17
2019-02-17T16:24:39.092Z,72.63
2019-02-17T16:27:08.294Z,66.67
2019-02-17T16:29:37.461Z,68.83
2019-02-17T16:32:06.775Z,63.27
2019-02-17T16:34:38.447Z,86.57
2019-02-17T16:37:06.875Z,81.13
2019-02-17T16:39:36.106Z,75.40
2019-02-17T16:42:05.312Z,80.23
2019-02-17T16:44:34.641Z,80.67
2019-02-17T16:47:03.862Z,72.40
2019-02-17T16:49:33.281Z,86.83
2019-02-17T16:52:02.490Z,83.07
2019-02-17T16:54:31.741Z,69.93
2019-02-17T16:57:00.880Z,66.27
2019-02-17T16:59:30.045Z,61.97
2019-02-17T17:01:59.222Z,69.83
2019-02-17T17:04:28.574Z,62.90
2019-02-17T17:06:57.907Z,66.93
2019-02-17T17:09:27.081Z,66.50
2019-02-17T17:11:56.222Z,65.17
2019-02-17T17:14:25.417Z,74.30
2019-02-17T17:16:54.668Z,57.77
2019-02-17T17:19:23.919Z,76.40
2019-02-17T17:21:53.085Z,67.57
2019-02-17T17:24:22.476Z,69.27
2019-02-17T17:26:51.840Z,80.40
2019-02-17T17:29:21.075Z,68.13
2019-02-17T17:31:50.330Z,56.63
2019-02-17T17:34:19.564Z,66.83
2019-02-17T17:36:48.726Z,52.03
2019-02-17T17:39:17.912Z,53.70
2019-02-17T17:41:47.130Z,53.37
2019-02-17T17:44:16.271Z,47.40
2019-02-17T17:46:45.473Z,47.90
2019-02-17T17:49:19.283Z,47.50
2019-02-17T17:51:45.534Z,43.90
2019-02-17T17:54:14.820Z,40.83
2019-02-17T17:56:44.146Z,40.67
2019-02-17T17:59:13.420Z,44.63
2019-02-17T18:01:42.650Z,44.07
2019-02-17T18:04:11.822Z,43.70
2019-02-17T18:06:41.093Z,52.20
2019-02-17T18:09:10.432Z,49.47
2019-02-17T18:11:39.785Z,52.33
2019-02-17T18:14:09.015Z,53.63
2019-02-17T18:16:38.298Z,45.53
2019-02-17T18:19:07.485Z,56.13
2019-02-17T18:21:36.710Z,47.93
2019-02-17T18:24:05.969Z,58.20
2019-02-17T18:26:35.403Z,57.37
2019-02-17T18:29:04.970Z,66.10
2019-02-17T18:31:34.304Z,60.10
2019-02-17T18:34:03.541Z,55.83
2019-02-17T18:36:32.746Z,57.40
2019-02-17T18:39:01.935Z,58.87
2019-02-17T18:41:31.695Z,62.27
2019-02-17T18:44:02.371Z,85.30
2019-02-17T18:46:31.726Z,71.00
2019-02-17T18:49:01.096Z,61.37
2019-02-17T18:51:30.242Z,69.40
2019-02-17T18:53:59.618Z,74.00
2019-02-17T18:56:29.158Z,67.07
2019-02-17T18:58:58.517Z,73.30
2019-02-17T19:01:27.837Z,63.60
2019-02-17T19:03:56.978Z,64.37
2019-02-17T19:06:26.217Z,57.87
2019-02-17T19:08:55.353Z,58.63
2019-02-17T19:11:24.512Z,51.87
2019-02-17T19:13:53.763Z,53.63
2019-02-17T19:16:23.142Z,50.63
2019-02-17T19:18:52.371Z,50.17
2019-02-17T19:21:21.562Z,48.40
2019-02-17T19:23:53.657Z,56.40
2019-02-17T19:26:22.959Z,53.43
2019-02-17T19:28:52.129Z,55.63
2019-02-17T19:31:21.279Z,63.93
2019-02-17T19:33:50.422Z,58.43
2019-02-17T19:36:19.639Z,59.50
2019-02-17T19:38:48.788Z,65.30
2019-02-17T19:41:18.006Z,66.47
2019-02-17T19:43:47.158Z,57.50
2019-02-17T19:46:16.382Z,66.27
2019-02-17T19:48:45.570Z,60.53
2019-02-17T19:51:14.837Z,57.60
2019-02-17T19:53:44.022Z,58.27
2019-02-17T19:56:13.202Z,57.50
2019-02-17T19:58:42.361Z,60.17
2019-02-17T20:01:11.539Z,55.63
2019-02-17T20:04:01.622Z,56.13
2019-02-17T20:06:30.946Z,51.33
2019-02-17T20:09:00.086Z,53.43
2019-02-17T20:11:29.261Z,54.43
2019-02-17T20:13:58.417Z,59.07
2019-02-17T20:16:27.871Z,61.47
2019-02-17T20:18:57.061Z,56.10
2019-02-17T20:21:26.198Z,58.60
2019-02-17T20:23:55.405Z,57.17
2019-02-17T20:26:24.817Z,60.27
2019-02-17T20:28:57.282Z,59.03
2019-02-17T20:31:24.846Z,65.70
2019-02-17T20:33:53.992Z,60.43
2019-02-17T20:36:23.135Z,59.13
2019-02-17T20:38:52.370Z,63.73
2019-02-17T20:41:21.555Z,67.57
2019-02-17T20:43:53.509Z,62.60
2019-02-17T20:46:22.718Z,56.77
2019-02-17T20:48:52.587Z,59.27
2019-02-17T20:51:21.925Z,55.47
2019-02-17T20:53:51.108Z,64.30
2019-02-17T20:56:20.442Z,58.83
2019-02-17T20:58:49.643Z,60.23
2019-02-17T21:01:18.787Z,61.30
2019-02-17T21:03:47.935Z,59.70
2019-02-17T21:06:17.182Z,59.60
2019-02-17T21:08:46.317Z,54.73
2019-02-17T21:11:15.483Z,55.40
2019-02-17T21:13:44.618Z,53.47
2019-02-17T21:16:14.083Z,53.90
2019-02-17T21:18:43.248Z,53.77
2019-02-17T21:21:12.405Z,53.80
2019-02-17T21:23:41.637Z,55.27
2019-02-17T21:26:10.794Z,54.33
2019-02-17T21:28:39.973Z,51.90
2019-02-17T21:31:09.134Z,50.30
2019-02-17T21:33:38.369Z,55.93
2019-02-17T21:36:07.613Z,56.77
2019-02-17T21:38:36.774Z,58.00
2019-02-17T21:41:09.333Z,59.50
2019-02-17T21:43:36.814Z,58.13
2019-02-17T21:46:06.087Z,60.67
2019-02-17T21:48:35.234Z,57.93
2019-02-17T21:51:04.874Z,61.67
2019-02-17T21:53:34.058Z,58.90
2019-02-17T21:56:03.280Z,60.53
2019-02-17T21:58:32.471Z,59.10
2019-02-17T22:01:03.256Z,58.83
2019-02-17T22:03:32.706Z,57.77
2019-02-17T22:06:01.955Z,56.30
2019-02-17T22:08:31.130Z,53.77
2019-02-17T22:11:00.318Z,50.87
2019-02-17T22:13:29.497Z,50.73
2019-02-17T22:15:58.637Z,51.60
2019-02-17T22:18:29.686Z,50.67
2019-02-17T22:20:58.698Z,50.40
2019-02-17T22:23:27.838Z,48.87
2019-02-17T22:25:57.020Z,49.00
2019-02-17T22:28:26.158Z,48.70
2019-02-17T22:30:55.322Z,48.70
2019-02-17T22:33:24.478Z,50.47
2019-02-17T22:35:53.610Z,47.37
2019-02-17T22:38:22.846Z,46.77
2019-02-17T22:40:52.435Z,46.73
2019-02-17T22:43:21.665Z,45.00
2019-02-17T22:45:50.872Z,42.80
2019-02-17T22:48:20.058Z,46.40
2019-02-17T22:50:49.267Z,45.57
2019-02-17T22:53:18.453Z,48.33
2019-02-17T22:55:47.603Z,47.53
2019-02-17T22:58:16.807Z,47.93
2019-02-17T23:00:59.448Z,48.83
2019-02-17T23:03:29.871Z,48.03
2019-02-17T23:05:59.114Z,50.30
2019-02-17T23:08:28.318Z,54.40
2019-02-17T23:10:57.475Z,55.13
2019-02-17T23:13:26.670Z,54.97
2019-02-17T23:15:55.830Z,54.50
2019-02-17T23:18:24.980Z,56.10
2019-02-17T23:20:54.203Z,55.10
2019-02-17T23:23:23.375Z,56.53
2019-02-17T23:25:52.518Z,56.80
2019-02-17T23:28:21.666Z,55.07
2019-02-17T23:30:50.866Z,54.80
2019-02-17T23:33:20.000Z,53.93
2019-02-17T23:35:49.166Z,55.47
2019-02-17T23:38:18.325Z,51.63
2019-02-17T23:40:47.556Z,55.17
2019-02-17T23:43:16.768Z,53.67
2019-02-17T23:45:45.949Z,53.70
2019-02-17T23:48:15.082Z,54.67
2019-02-17T23:50:44.235Z,52.30
2019-02-17T23:53:13.478Z,50.13
2019-02-17T23:55:42.675Z,53.97
2019-02-17T23:58:11.905Z,52.17
